Terminal Aerodrome Forecast
Issued by NWS Grand Forks, ND

Home | Current Version | Previous Version | Text Only | Print | Product List | Glossary On
Versions: 1 2 3 4 5 6 7 8 9 10 11 12 13 14 15 16 17 18
712
FTUS43 KFGF 242320
TAFFAR
TAF
KFAR 242320Z 2500/2524 34017KT P6SM OVC005
     FM250400 34014KT 5SM BR OVC004
     FM250600 34013KT 5SM BR OVC003
     FM250900 34013KT P6SM OVC006
     FM251700 36016G24KT P6SM OVC010=

USA.gov is the U.S. government's official web portal to all federal, state and local government web resources and services.